createdAt,value
2022-10-25T00:01:57.728Z,39.63
2022-10-25T00:04:25.448Z,39.58
2022-10-25T00:06:53.218Z,39.76
2022-10-25T00:09:20.943Z,39.31
2022-10-25T00:11:48.658Z,39.41
2022-10-25T00:14:18.842Z,39.47
2022-10-25T00:16:46.565Z,39.39
2022-10-25T00:19:14.420Z,39.29
2022-10-25T00:21:42.044Z,39.17
2022-10-25T00:24:13.177Z,39.06
2022-10-25T00:26:41.416Z,39.10
2022-10-25T00:29:10.766Z,39.13
2022-10-25T00:31:38.513Z,39.11
2022-10-25T00:34:06.194Z,39.43
2022-10-25T00:36:34.022Z,39.24
2022-10-25T00:39:01.678Z,39.58
2022-10-25T00:41:32.773Z,39.34
2022-10-25T00:44:37.798Z,39.13
2022-10-25T00:47:21.287Z,38.93
2022-10-25T00:49:55.300Z,39.36
2022-10-25T00:52:26.060Z,39.08
2022-10-25T00:54:54.603Z,39.26
2022-10-25T00:57:28.624Z,38.76
2022-10-25T00:59:56.935Z,39.06
2022-10-25T01:02:24.959Z,39.00
2022-10-25T01:04:53.725Z,39.23
2022-10-25T01:07:21.655Z,38.90
2022-10-25T01:09:51.399Z,39.26
2022-10-25T01:12:19.134Z,39.13
2022-10-25T01:14:50.069Z,39.54
2022-10-25T01:17:49.881Z,39.49
2022-10-25T01:20:45.600Z,39.77
2022-10-25T01:23:31.934Z,39.68
2022-10-25T01:25:59.439Z,40.08
2022-10-25T01:28:48.450Z,40.22
2022-10-25T01:31:39.080Z,40.24
2022-10-25T01:34:13.864Z,40.81
2022-10-25T01:37:13.722Z,40.96
2022-10-25T01:39:44.036Z,40.88
2022-10-25T01:42:26.072Z,40.99
2022-10-25T01:45:18.767Z,40.81
2022-10-25T01:48:08.187Z,41.28
2022-10-25T01:50:41.597Z,41.32
2022-10-25T01:53:10.528Z,41.14
2022-10-25T01:55:43.002Z,41.19
2022-10-25T01:58:34.501Z,41.00
2022-10-25T02:01:18.246Z,41.35
2022-10-25T02:03:56.754Z,41.10
2022-10-25T02:06:39.397Z,41.41
2022-10-25T02:09:14.591Z,41.09
2022-10-25T02:11:42.349Z,41.26
2022-10-25T02:14:25.188Z,41.66
2022-10-25T02:17:18.839Z,41.36
2022-10-25T02:19:51.428Z,41.46
2022-10-25T02:22:23.996Z,41.15
2022-10-25T02:24:53.202Z,41.30
2022-10-25T02:27:23.428Z,41.28
2022-10-25T02:29:53.874Z,41.53
2022-10-25T02:32:22.093Z,41.19
2022-10-25T02:34:51.186Z,41.57
2022-10-25T02:37:19.736Z,41.23
2022-10-25T02:39:48.991Z,41.09
2022-10-25T02:42:16.663Z,41.38
2022-10-25T02:44:44.366Z,41.01
2022-10-25T02:47:12.122Z,41.17
2022-10-25T02:49:39.899Z,40.73
2022-10-25T02:52:07.639Z,40.82
2022-10-25T02:54:35.343Z,41.16
2022-10-25T02:57:02.998Z,40.84
2022-10-25T02:59:30.587Z,40.70
2022-10-25T03:01:58.412Z,40.59
2022-10-25T03:04:26.243Z,40.62
2022-10-25T03:06:54.221Z,40.94
2022-10-25T03:09:21.887Z,40.61
2022-10-25T03:11:49.577Z,40.29
2022-10-25T03:14:17.300Z,39.98
2022-10-25T03:16:45.413Z,40.22
2022-10-25T03:19:13.221Z,39.50
2022-10-25T03:21:41.988Z,39.83
2022-10-25T03:24:09.789Z,39.35
2022-10-25T03:26:37.540Z,39.42
2022-10-25T03:29:05.126Z,39.65
2022-10-25T03:31:32.831Z,39.72
2022-10-25T03:34:00.488Z,39.48
2022-10-25T03:36:28.177Z,39.51
2022-10-25T03:38:56.003Z,39.40
2022-10-25T03:41:23.788Z,39.23
2022-10-25T03:43:51.523Z,39.49
2022-10-25T03:46:19.179Z,39.15
2022-10-25T03:48:46.927Z,39.26
2022-10-25T03:51:14.558Z,39.52
2022-10-25T03:53:42.302Z,39.51
2022-10-25T03:56:09.944Z,39.13
2022-10-25T03:58:37.719Z,39.46
2022-10-25T04:01:09.107Z,39.04
2022-10-25T04:03:37.611Z,39.29
2022-10-25T04:06:05.382Z,39.06
2022-10-25T04:08:33.094Z,39.10
2022-10-25T04:11:00.895Z,39.01
2022-10-25T04:13:28.579Z,38.76
2022-10-25T04:15:56.277Z,38.67
2022-10-25T04:18:23.966Z,38.57
2022-10-25T04:20:51.656Z,38.30
2022-10-25T04:23:20.413Z,38.07
2022-10-25T04:25:48.174Z,38.06
2022-10-25T04:28:16.184Z,38.01
2022-10-25T04:30:43.891Z,37.84
2022-10-25T04:33:11.624Z,38.15
2022-10-25T04:35:39.338Z,38.10
2022-10-25T04:38:06.991Z,37.92
2022-10-25T04:40:34.698Z,38.18
2022-10-25T04:43:02.662Z,38.32
2022-10-25T04:45:30.450Z,38.80
2022-10-25T04:47:58.629Z,38.31
2022-10-25T04:50:26.629Z,37.94
2022-10-25T04:52:54.109Z,38.24
2022-10-25T04:55:21.839Z,38.06
2022-10-25T04:57:51.793Z,37.55
2022-10-25T05:00:19.491Z,37.82
2022-10-25T05:02:47.257Z,37.86
2022-10-25T05:05:15.155Z,37.92
2022-10-25T05:07:42.924Z,38.04
2022-10-25T05:10:10.970Z,37.77
2022-10-25T05:12:38.801Z,37.82
2022-10-25T05:15:07.377Z,38.22
2022-10-25T05:17:35.412Z,38.00
2022-10-25T05:20:03.728Z,37.87
2022-10-25T05:22:31.762Z,37.47
2022-10-25T05:24:59.532Z,37.81
2022-10-25T05:27:27.255Z,37.59
2022-10-25T05:29:54.816Z,38.74
2022-10-25T05:32:22.562Z,44.12
2022-10-25T05:34:50.053Z,42.35
2022-10-25T05:37:17.850Z,40.40
2022-10-25T05:39:45.673Z,38.98
2022-10-25T05:42:13.335Z,38.91
2022-10-25T05:44:41.308Z,38.36
2022-10-25T05:47:09.054Z,37.80
2022-10-25T05:49:40.322Z,37.47
2022-10-25T05:52:08.682Z,37.91
2022-10-25T05:54:36.285Z,37.77
2022-10-25T05:57:03.993Z,37.78
2022-10-25T05:59:31.860Z,37.19
2022-10-25T06:01:59.748Z,37.46
2022-10-25T06:04:27.437Z,37.42
2022-10-25T06:06:55.063Z,37.92
2022-10-25T06:09:22.680Z,38.25
2022-10-25T06:11:50.271Z,38.60
2022-10-25T06:14:18.073Z,38.46
2022-10-25T06:16:45.758Z,38.32
2022-10-25T06:19:13.512Z,38.66
2022-10-25T06:21:41.307Z,38.68
2022-10-25T06:24:09.551Z,38.25
2022-10-25T06:26:37.272Z,38.41
2022-10-25T06:29:05.677Z,38.25
2022-10-25T06:31:33.382Z,37.91
2022-10-25T06:34:01.436Z,38.51
2022-10-25T06:36:31.330Z,41.38
2022-10-25T06:39:05.487Z,41.40
2022-10-25T06:41:37.389Z,40.37
2022-10-25T06:44:07.200Z,40.15
2022-10-25T06:49:27.430Z,39.56
2022-10-25T06:51:55.298Z,39.08
2022-10-25T06:54:23.126Z,38.71
2022-10-25T06:56:50.866Z,38.10
2022-10-25T06:59:20.618Z,38.17
2022-10-25T07:01:48.650Z,38.10
2022-10-25T07:04:16.604Z,37.77
2022-10-25T07:06:44.139Z,37.81
2022-10-25T07:09:13.307Z,37.94
2022-10-25T07:11:41.246Z,38.53
2022-10-25T07:14:09.540Z,38.78
2022-10-25T07:16:37.536Z,38.74
2022-10-25T07:19:05.259Z,38.92
2022-10-25T07:21:33.821Z,38.80
2022-10-25T07:24:02.299Z,39.06
2022-10-25T07:26:35.041Z,39.34
2022-10-25T07:29:04.394Z,39.42
2022-10-25T07:31:44.357Z,39.27
2022-10-25T07:34:14.576Z,39.30
2022-10-25T07:36:42.300Z,39.10
2022-10-25T07:39:09.935Z,38.86
2022-10-25T07:41:38.046Z,38.95
2022-10-25T07:44:05.744Z,39.22
2022-10-25T07:46:33.520Z,38.96
2022-10-25T07:49:01.437Z,39.19
2022-10-25T07:51:29.108Z,39.29
2022-10-25T07:53:56.899Z,38.95
2022-10-25T07:56:24.642Z,39.29
2022-10-25T07:58:53.052Z,39.04
2022-10-25T08:01:23.126Z,38.86
2022-10-25T08:03:52.420Z,39.22
2022-10-25T08:06:21.923Z,38.82
2022-10-25T08:08:50.086Z,39.20
2022-10-25T08:11:17.845Z,39.03
2022-10-25T08:13:49.045Z,38.87
2022-10-25T08:16:17.169Z,38.93
2022-10-25T08:18:44.797Z,39.08
2022-10-25T08:21:12.672Z,39.13
2022-10-25T08:23:40.493Z,39.21
2022-10-25T08:26:08.180Z,39.32
2022-10-25T08:28:35.774Z,39.33
2022-10-25T08:31:04.578Z,39.34
2022-10-25T08:33:33.100Z,39.21
2022-10-25T08:36:02.304Z,39.31
2022-10-25T08:38:30.212Z,39.16
2022-10-25T08:41:10.273Z,39.33
2022-10-25T08:43:50.248Z,39.13
2022-10-25T08:46:27.759Z,39.02
2022-10-25T08:49:14.618Z,39.45
2022-10-25T08:51:45.221Z,39.24
2022-10-25T08:54:24.428Z,39.14
2022-10-25T08:57:14.641Z,39.30
2022-10-25T08:59:49.751Z,39.46
2022-10-25T09:02:48.986Z,39.73
2022-10-25T09:05:28.132Z,40.02
2022-10-25T09:08:06.284Z,40.20
2022-10-25T09:11:09.458Z,40.01
2022-10-25T09:13:40.322Z,40.51
2022-10-25T09:16:31.596Z,40.63
2022-10-25T09:18:59.263Z,40.56
2022-10-25T09:21:48.786Z,40.30
2022-10-25T09:24:28.244Z,40.51
2022-10-25T09:27:01.795Z,40.36
2022-10-25T09:29:38.006Z,40.70
2022-10-25T09:32:16.143Z,40.37
2022-10-25T09:34:44.566Z,40.71
2022-10-25T09:37:27.630Z,40.33
2022-10-25T09:40:01.211Z,40.32
2022-10-25T09:42:37.577Z,40.62
2022-10-25T09:45:15.293Z,40.65
2022-10-25T09:47:49.758Z,40.39
2022-10-25T09:50:17.633Z,40.55
2022-10-25T09:53:16.675Z,40.20
2022-10-25T09:55:53.881Z,40.65
2022-10-25T09:58:24.340Z,40.56
2022-10-25T10:00:54.301Z,39.99
2022-10-25T10:03:23.802Z,39.67
2022-10-25T10:05:57.941Z,39.64
2022-10-25T10:08:26.215Z,39.31
2022-10-25T10:10:55.182Z,39.89
2022-10-25T10:13:46.892Z,40.36
2022-10-25T10:16:27.112Z,40.55
2022-10-25T10:19:22.543Z,40.58
2022-10-25T10:21:57.529Z,40.83
2022-10-25T10:24:44.102Z,40.46
2022-10-25T10:27:21.262Z,39.30
2022-10-25T10:29:56.833Z,39.57
2022-10-25T10:32:27.910Z,38.88
2022-10-25T10:34:57.939Z,38.81
2022-10-25T10:37:28.468Z,39.44
2022-10-25T10:39:58.619Z,38.93
2022-10-25T10:42:35.568Z,38.34
2022-10-25T10:45:07.905Z,38.12
2022-10-25T10:47:48.768Z,37.34
2022-10-25T10:50:28.769Z,37.71
2022-10-25T10:53:02.920Z,37.89
2022-10-25T10:55:44.354Z,37.90
2022-10-25T10:58:27.708Z,37.93
2022-10-25T11:01:03.138Z,37.84
2022-10-25T11:03:58.865Z,37.49
2022-10-25T11:06:32.813Z,37.66
2022-10-25T11:09:12.867Z,37.40
2022-10-25T11:11:41.078Z,37.91
2022-10-25T11:14:14.269Z,38.05
2022-10-25T11:17:11.237Z,38.21
2022-10-25T11:20:00.945Z,39.01
2022-10-25T11:22:50.424Z,39.10
2022-10-25T11:25:25.722Z,39.78
2022-10-25T11:28:05.462Z,39.87
2022-10-25T11:31:10.545Z,41.11
2022-10-25T11:34:10.575Z,41.40
2022-10-25T11:36:59.756Z,41.98
2022-10-25T11:39:37.049Z,42.45
2022-10-25T11:42:17.986Z,45.42
2022-10-25T11:45:21.204Z,45.45
2022-10-25T11:48:13.379Z,45.13
2022-10-25T11:50:45.337Z,46.45
2022-10-25T11:53:38.566Z,49.26
2022-10-25T11:56:21.442Z,48.35
2022-10-25T11:59:18.574Z,47.82
2022-10-25T12:02:23.474Z,46.88
2022-10-25T12:05:09.332Z,46.77
2022-10-25T12:07:52.233Z,46.59
2022-10-25T12:10:42.927Z,47.11
2022-10-25T12:13:26.871Z,46.93
2022-10-25T12:15:56.739Z,46.35
2022-10-25T12:18:54.957Z,47.14
2022-10-25T12:21:28.304Z,46.76
2022-10-25T12:23:57.665Z,46.65
2022-10-25T12:26:31.654Z,46.70
2022-10-25T12:29:04.937Z,46.40
2022-10-25T12:31:47.982Z,46.06
2022-10-25T12:34:48.282Z,45.84
2022-10-25T12:37:38.275Z,45.85
2022-10-25T12:40:14.818Z,45.65
2022-10-25T12:42:47.952Z,45.76
2022-10-25T12:45:29.951Z,46.34
2022-10-25T12:48:18.792Z,46.30
2022-10-25T12:50:49.459Z,46.13
2022-10-25T12:53:26.408Z,46.53
2022-10-25T12:56:06.642Z,47.23
2022-10-25T12:58:54.023Z,47.40
2022-10-25T13:01:24.701Z,47.52
2022-10-25T13:04:06.581Z,46.81
2022-10-25T13:06:37.204Z,47.13
2022-10-25T13:09:10.865Z,47.55
2022-10-25T13:11:42.646Z,47.39
2022-10-25T13:14:27.910Z,48.31
2022-10-25T13:17:17.755Z,48.03
2022-10-25T13:19:55.413Z,48.99
2022-10-25T13:22:35.707Z,48.29
2022-10-25T13:25:09.217Z,48.21
2022-10-25T13:27:37.172Z,48.15
2022-10-25T13:30:08.161Z,48.56
2022-10-25T13:32:43.684Z,48.31
2022-10-25T13:35:20.512Z,48.64
2022-10-25T13:37:50.459Z,48.64
2022-10-25T13:40:20.884Z,48.96
2022-10-25T13:42:59.888Z,48.73
2022-10-25T13:45:38.977Z,49.60
2022-10-25T13:48:36.382Z,49.57
2022-10-25T13:51:18.848Z,49.49
2022-10-25T13:53:50.404Z,49.14
2022-10-25T13:56:24.386Z,50.04
2022-10-25T13:58:54.087Z,49.14
2022-10-25T14:01:24.362Z,49.11
2022-10-25T14:04:06.213Z,49.24
2022-10-25T14:06:36.268Z,49.14
2022-10-25T14:09:37.526Z,50.08
2022-10-25T14:12:20.131Z,49.71
2022-10-25T14:14:47.974Z,49.64
2022-10-25T14:17:37.197Z,50.16
2022-10-25T14:20:31.621Z,50.36
2022-10-25T14:23:02.814Z,50.27
2022-10-25T14:25:38.382Z,50.59
2022-10-25T14:28:15.258Z,51.26
2022-10-25T14:30:43.979Z,51.38
2022-10-25T14:33:25.399Z,52.17
2022-10-25T14:35:57.583Z,51.34
2022-10-25T14:38:28.545Z,51.62
2022-10-25T14:41:01.653Z,51.62
2022-10-25T14:43:30.898Z,51.63
2022-10-25T14:46:20.300Z,52.16
2022-10-25T14:48:49.483Z,51.56
2022-10-25T14:51:28.702Z,51.73
2022-10-25T14:54:12.664Z,51.67
2022-10-25T14:56:55.179Z,51.48
2022-10-25T14:59:29.712Z,51.96
2022-10-25T15:02:05.611Z,51.11
2022-10-25T15:04:39.148Z,51.40
2022-10-25T15:07:18.939Z,51.73
2022-10-25T15:09:56.039Z,51.82
2022-10-25T15:12:29.011Z,51.86
2022-10-25T15:14:58.863Z,52.63
2022-10-25T15:17:31.022Z,52.84
2022-10-25T15:20:02.681Z,52.62
2022-10-25T15:22:32.195Z,52.55
2022-10-25T15:25:00.210Z,53.08
2022-10-25T15:27:40.454Z,52.94
2022-10-25T15:30:40.097Z,52.89
2022-10-25T15:33:14.198Z,52.64
2022-10-25T15:35:55.415Z,52.68
2022-10-25T15:38:41.954Z,52.58
2022-10-25T15:41:15.961Z,52.35
2022-10-25T15:43:43.830Z,52.93
2022-10-25T15:46:27.579Z,53.69
2022-10-25T15:48:55.485Z,53.13
2022-10-25T15:51:25.177Z,53.09
2022-10-25T15:53:55.228Z,53.41
2022-10-25T15:56:22.980Z,53.25
2022-10-25T15:58:51.435Z,53.05
2022-10-25T16:01:19.490Z,52.88
2022-10-25T16:03:47.470Z,52.94
2022-10-25T16:06:15.155Z,53.62
2022-10-25T16:08:42.973Z,53.63
2022-10-25T16:11:16.333Z,54.54
2022-10-25T16:13:45.633Z,54.14
2022-10-25T16:16:39.317Z,55.20
2022-10-25T16:19:19.144Z,54.91
2022-10-25T16:21:47.191Z,54.47
2022-10-25T16:24:15.019Z,54.49
2022-10-25T16:26:46.564Z,54.67
2022-10-25T16:29:24.499Z,55.18
2022-10-25T16:31:54.052Z,54.68
2022-10-25T16:34:22.001Z,55.26
2022-10-25T16:36:50.993Z,55.47
2022-10-25T16:39:18.737Z,56.07
2022-10-25T16:41:47.548Z,55.37
2022-10-25T16:44:17.735Z,55.54
2022-10-25T16:46:46.404Z,56.03
2022-10-25T16:49:14.481Z,56.20
2022-10-25T16:51:44.515Z,57.89
2022-10-25T16:54:12.988Z,56.57
2022-10-25T16:56:42.799Z,56.89
2022-10-25T16:59:10.729Z,56.03
2022-10-25T17:01:40.243Z,56.17
2022-10-25T17:04:10.777Z,56.50
2022-10-25T17:06:42.633Z,56.25
2022-10-25T17:09:11.412Z,56.16
2022-10-25T17:11:39.141Z,56.30
2022-10-25T17:14:07.241Z,56.33
2022-10-25T17:16:34.912Z,55.92
2022-10-25T17:19:04.163Z,56.22
2022-10-25T17:21:33.568Z,56.51
2022-10-25T17:24:01.972Z,56.86
2022-10-25T17:26:29.765Z,56.33
2022-10-25T17:28:57.961Z,56.00
2022-10-25T17:31:26.457Z,56.06
2022-10-25T17:33:54.719Z,56.17
2022-10-25T17:36:23.648Z,56.03
2022-10-25T17:38:51.941Z,56.04
2022-10-25T17:41:19.641Z,56.18
2022-10-25T17:43:47.391Z,57.83
2022-10-25T17:46:31.104Z,56.73
2022-10-25T17:49:03.658Z,56.33
2022-10-25T17:51:33.601Z,55.97
2022-10-25T17:54:01.570Z,56.93
2022-10-25T17:58:58.638Z,56.19
2022-10-25T18:01:28.144Z,55.98
2022-10-25T18:03:56.778Z,56.42
2022-10-25T18:06:26.173Z,56.43
2022-10-25T18:08:56.927Z,56.38
2022-10-25T18:11:27.555Z,55.98
2022-10-25T18:14:00.382Z,56.36
2022-10-25T18:16:31.206Z,56.32
2022-10-25T18:19:01.600Z,56.32
2022-10-25T18:21:30.191Z,56.95
2022-10-25T18:24:00.411Z,56.88
2022-10-25T18:26:29.130Z,56.57
2022-10-25T18:28:59.135Z,56.67
2022-10-25T18:31:27.811Z,56.86
2022-10-25T18:33:55.807Z,56.56
2022-10-25T18:36:23.512Z,57.08
2022-10-25T18:38:52.172Z,57.28
2022-10-25T18:41:25.280Z,56.64
2022-10-25T18:43:54.931Z,56.57
2022-10-25T18:46:23.193Z,56.42
2022-10-25T18:48:54.992Z,56.82
2022-10-25T18:51:26.090Z,56.97
2022-10-25T18:53:57.642Z,56.54
2022-10-25T18:56:26.383Z,56.22
2022-10-25T18:58:57.016Z,56.17
2022-10-25T19:01:28.142Z,56.10
2022-10-25T19:03:57.441Z,56.24
2022-10-25T19:06:25.765Z,55.90
2022-10-25T19:08:54.423Z,56.39
2022-10-25T19:11:22.693Z,55.99
2022-10-25T19:13:55.072Z,56.02
2022-10-25T19:16:23.392Z,56.01
2022-10-25T19:18:51.194Z,56.11
2022-10-25T19:21:19.387Z,55.82
2022-10-25T19:23:47.951Z,55.82
2022-10-25T19:26:19.645Z,56.19
2022-10-25T19:28:56.061Z,56.92
2022-10-25T19:31:24.223Z,56.16
2022-10-25T19:33:52.886Z,56.58
2022-10-25T19:36:20.886Z,57.15
2022-10-25T19:38:49.444Z,56.72
2022-10-25T19:41:20.273Z,56.70
2022-10-25T19:43:50.048Z,56.53
2022-10-25T19:46:18.508Z,56.67
2022-10-25T19:48:46.297Z,56.46
2022-10-25T19:51:19.332Z,56.31
2022-10-25T19:53:47.681Z,56.42
2022-10-25T19:56:17.981Z,56.29
2022-10-25T19:58:46.172Z,56.11
2022-10-25T20:01:19.413Z,56.32
2022-10-25T20:03:50.150Z,56.57
2022-10-25T20:06:24.232Z,56.51
2022-10-25T20:08:53.964Z,56.91
2022-10-25T20:11:23.992Z,56.61
2022-10-25T20:13:57.738Z,56.20
2022-10-25T20:16:27.844Z,56.20
2022-10-25T20:18:56.875Z,56.40
2022-10-25T20:21:27.342Z,56.13
2022-10-25T20:24:00.482Z,55.87
2022-10-25T20:26:39.150Z,55.90
2022-10-25T20:29:17.136Z,55.71
2022-10-25T20:31:48.090Z,56.20
2022-10-25T20:34:16.216Z,55.98
2022-10-25T20:36:44.051Z,55.86
2022-10-25T20:39:13.262Z,55.67
2022-10-25T20:41:41.166Z,55.45
2022-10-25T20:44:09.943Z,55.47
2022-10-25T20:46:37.853Z,55.32
2022-10-25T20:49:07.569Z,55.45
2022-10-25T20:51:35.508Z,55.26
2022-10-25T20:54:09.710Z,54.98
2022-10-25T20:56:39.616Z,55.03
2022-10-25T20:59:07.902Z,54.90
2022-10-25T21:01:36.202Z,54.95
2022-10-25T21:04:05.620Z,55.14
2022-10-25T21:06:34.563Z,54.89
2022-10-25T21:09:02.373Z,55.59
2022-10-25T21:11:30.040Z,56.00
2022-10-25T21:13:57.937Z,55.79
2022-10-25T21:16:31.090Z,54.88
2022-10-25T21:19:05.963Z,54.75
2022-10-25T21:21:36.583Z,54.53
2022-10-25T21:24:06.231Z,56.06
2022-10-25T21:26:33.893Z,56.26
2022-10-25T21:29:01.832Z,55.24
2022-10-25T21:31:30.063Z,54.62
2022-10-25T21:34:01.367Z,54.64
2022-10-25T21:36:31.292Z,54.63
2022-10-25T21:39:02.906Z,54.40
2022-10-25T21:41:31.546Z,54.02
2022-10-25T21:43:59.831Z,54.11
2022-10-25T21:46:29.003Z,54.31
2022-10-25T21:48:56.889Z,54.86
2022-10-25T21:51:24.802Z,55.13
2022-10-25T21:53:55.600Z,54.93
2022-10-25T21:56:31.117Z,54.37
2022-10-25T21:59:00.277Z,54.47
2022-10-25T22:01:30.772Z,53.95
2022-10-25T22:03:59.373Z,54.35
2022-10-25T22:06:27.996Z,53.86
2022-10-25T22:08:56.555Z,53.79
2022-10-25T22:11:30.901Z,54.08
2022-10-25T22:14:01.421Z,53.88
2022-10-25T22:16:30.626Z,54.13
2022-10-25T22:19:00.856Z,54.14
2022-10-25T22:21:31.330Z,53.74
2022-10-25T22:24:00.048Z,53.80
2022-10-25T22:26:28.186Z,53.91
2022-10-25T22:28:57.955Z,53.56
2022-10-25T22:31:27.904Z,53.77
2022-10-25T22:33:57.618Z,53.90
2022-10-25T22:36:28.707Z,54.06
2022-10-25T22:38:57.257Z,54.09
2022-10-25T22:41:27.617Z,53.91
2022-10-25T22:43:55.685Z,53.85
2022-10-25T22:46:26.028Z,53.93
2022-10-25T22:48:58.571Z,53.56
2022-10-25T22:51:28.531Z,53.81
2022-10-25T22:53:56.546Z,53.89
2022-10-25T22:56:26.712Z,53.97
2022-10-25T22:59:02.328Z,53.96
2022-10-25T23:01:38.030Z,53.65
2022-10-25T23:04:08.529Z,53.69
2022-10-25T23:06:38.867Z,53.82
2022-10-25T23:09:11.930Z,54.12
2022-10-25T23:11:41.200Z,53.82
2022-10-25T23:14:13.490Z,54.01
2022-10-25T23:16:45.074Z,53.74
2022-10-25T23:19:12.771Z,53.72
2022-10-25T23:21:40.542Z,53.99
2022-10-25T23:24:09.463Z,53.65
2022-10-25T23:26:37.622Z,54.00
2022-10-25T23:29:06.155Z,54.06
2022-10-25T23:31:34.289Z,54.07
2022-10-25T23:34:02.028Z,53.67
2022-10-25T23:36:37.605Z,53.72
2022-10-25T23:39:07.722Z,54.11
2022-10-25T23:41:36.303Z,54.03
2022-10-25T23:44:04.298Z,53.58
2022-10-25T23:46:31.923Z,53.83
2022-10-25T23:49:00.047Z,54.01
2022-10-25T23:51:30.872Z,53.73
2022-10-25T23:53:58.531Z,53.58
2022-10-25T23:56:26.242Z,54.05
2022-10-25T23:58:54.179Z,53.69
